Time;durP1;ratioP1;P1;durP2;ratioP2;P2;SDS_P1;SDS_P2;PMS_P1;PMS_P2;Temp;Humidity;BMP_temperature;BMP_pressure;BME280_temperature;BME280_humidity;BME280_pressure;Samples;Min_cycle;Max_cycle;Signal;HPM_P1;HPM_P2
2023/08/05 00:01:30;;;;;;;5.20;4.00;;;;;;;19.97;100.00;98444.80;109656;1252;58294;-78
2023/08/05 00:03:57;;;;;;;5.90;4.40;;;;;;;19.94;100.00;98447.29;109563;1253;66378;-78
2023/08/05 00:06:23;;;;;;;6.10;4.50;;;;;;;19.89;100.00;98441.15;109605;1251;60731;-79
2023/08/05 00:08:50;;;;;;;9.30;5.50;;;;;;;19.85;100.00;98435.52;109538;1254;64035;-79
2023/08/05 00:11:16;;;;;;;8.20;5.30;;;;;;;19.83;100.00;98433.79;109580;1253;58204;-79
2023/08/05 00:13:43;;;;;;;8.70;5.90;;;;;;;19.83;100.00;98426.79;109575;1253;58213;-79
2023/08/05 00:16:09;;;;;;;6.80;5.40;;;;;;;19.81;100.00;98424.84;109570;1252;73837;-78
2023/08/05 00:18:36;;;;;;;7.60;5.30;;;;;;;19.81;100.00;98421.42;109598;1252;61356;-79
2023/08/05 00:21:02;;;;;;;6.40;5.50;;;;;;;19.79;100.00;98422.47;109407;1253;64261;-79
2023/08/05 00:23:29;;;;;;;6.10;5.50;;;;;;;19.77;100.00;98418.98;109614;1253;58222;-79
2023/08/05 00:25:55;;;;;;;7.60;5.20;;;;;;;19.73;100.00;98413.95;109399;1253;58233;-78
2023/08/05 00:28:22;;;;;;;7.10;5.10;;;;;;;19.71;100.00;98409.52;109554;1253;65221;-78
2023/08/05 00:30:49;;;;;;;8.00;5.40;;;;;;;19.69;100.00;98412.61;109573;1254;60160;-78
2023/08/05 00:33:15;;;;;;;5.60;5.10;;;;;;;19.68;100.00;98417.38;109601;1254;64101;-79
2023/08/05 00:35:42;;;;;;;6.90;5.10;;;;;;;19.69;100.00;98416.55;109585;1254;58176;-79
2023/08/05 00:38:08;;;;;;;7.70;5.20;;;;;;;19.70;100.00;98411.46;109606;1252;58102;-79
2023/08/05 00:40:35;;;;;;;5.50;4.90;;;;;;;19.70;100.00;98405.70;109517;1254;64943;-79
2023/08/05 00:43:02;;;;;;;6.90;4.70;;;;;;;19.69;100.00;98401.25;109466;1253;162181;-79
2023/08/05 00:45:30;;;;;;;5.50;5.00;;;;;;;19.69;100.00;98394.09;109558;1252;62876;-79
2023/08/05 00:47:56;;;;;;;7.70;4.90;;;;;;;19.68;100.00;98392.71;109576;1253;58153;-79
2023/08/05 00:50:24;;;;;;;5.20;4.70;;;;;;;19.66;100.00;98385.72;109511;1254;58204;-79
2023/08/05 00:52:50;;;;;;;5.60;5.00;;;;;;;19.67;100.00;98386.97;109618;1252;66461;-79
2023/08/05 00:55:17;;;;;;;6.40;4.80;;;;;;;19.67;100.00;98391.27;109586;1253;61402;-79
2023/08/05 00:57:44;;;;;;;7.20;5.10;;;;;;;19.67;100.00;98388.91;109623;1251;65189;-79
2023/08/05 01:00:11;;;;;;;7.20;4.80;;;;;;;19.67;100.00;98389.62;109595;1253;58173;-80
2023/08/05 01:02:38;;;;;;;6.90;4.70;;;;;;;19.68;100.00;98388.66;109580;1252;58207;-80
2023/08/05 01:05:04;;;;;;;7.90;4.70;;;;;;;19.68;100.00;98388.21;109597;1252;66799;-79
2023/08/05 01:07:32;;;;;;;6.20;4.90;;;;;;;19.69;100.00;98391.48;109592;1254;60161;-79
2023/08/05 01:09:59;;;;;;;5.70;4.60;;;;;;;19.71;100.00;98399.79;109544;1252;63924;-80
2023/08/05 01:12:25;;;;;;;6.50;4.80;;;;;;;19.72;100.00;98406.82;109563;1253;58194;-79
2023/08/05 01:14:52;;;;;;;6.50;4.70;;;;;;;19.73;100.00;98409.45;109618;1252;58500;-79
2023/08/05 01:17:19;;;;;;;8.10;4.80;;;;;;;19.74;100.00;98406.64;109592;1252;65288;-79
2023/08/05 01:19:46;;;;;;;4.90;4.20;;;;;;;19.76;100.00;98397.05;109576;1251;61201;-80
2023/08/05 01:22:26;;;;;;;6.90;4.80;;;;;;;19.78;100.00;98399.02;109569;1252;64059;-80
2023/08/05 01:24:58;;;;;;;;;;;;;;;19.79;100.00;98405.02;109577;1252;58583;-79
2023/08/05 01:27:26;;;;;;;5.50;4.90;;;;;;;19.79;100.00;98402.70;109595;1251;58177;-79
2023/08/05 01:29:53;;;;;;;6.00;4.30;;;;;;;19.80;100.00;98396.79;109622;1253;66377;-79
2023/08/05 01:32:20;;;;;;;5.30;4.30;;;;;;;19.80;100.00;98385.16;109433;1252;60106;-79
2023/08/05 01:34:47;;;;;;;7.30;4.70;;;;;;;19.76;100.00;98373.81;109538;1252;63766;-79
2023/08/05 01:37:13;;;;;;;5.50;4.50;;;;;;;19.73;100.00;98375.42;109626;1253;58187;-78
2023/08/05 01:39:40;;;;;;;6.40;4.50;;;;;;;19.70;100.00;98377.19;109597;1252;58163;-79
2023/08/05 01:42:07;;;;;;;5.30;4.80;;;;;;;19.67;100.00;98366.04;109337;1253;64265;-79
2023/08/05 01:44:33;;;;;;;4.70;4.30;;;;;;;19.63;100.00;98363.37;109613;1253;61353;-79
2023/08/05 01:47:00;;;;;;;6.50;5.10;;;;;;;19.59;100.00;98363.79;109563;1252;65290;-79
2023/08/05 01:49:27;;;;;;;6.70;5.50;;;;;;;19.57;100.00;98362.45;109553;1253;58156;-78
2023/08/05 01:51:53;;;;;;;5.40;4.90;;;;;;;19.54;100.00;98356.86;109581;1253;58117;-79
2023/08/05 01:54:20;;;;;;;9.60;5.50;;;;;;;19.52;100.00;98350.45;109579;1253;64942;-79
2023/08/05 01:56:46;;;;;;;6.50;4.70;;;;;;;19.49;100.00;98359.21;109549;1253;59104;-79
2023/08/05 01:59:13;;;;;;;6.90;5.10;;;;;;;19.47;100.00;98365.77;109581;1253;63767;-79
2023/08/05 02:01:47;;;;;;;6.20;4.60;;;;;;;19.46;100.00;98368.72;109179;1252;58266;-78
2023/08/05 02:04:14;;;;;;;7.30;5.30;;;;;;;19.46;100.00;98367.84;109607;1253;58183;-78
2023/08/05 02:06:41;;;;;;;5.30;4.80;;;;;;;19.48;100.00;98367.84;109548;1253;66645;-78
2023/08/05 02:09:08;;;;;;;5.60;4.60;;;;;;;19.50;100.00;98371.57;109623;1253;60201;-78
2023/08/05 02:11:34;;;;;;;7.00;4.70;;;;;;;19.51;100.00;98372.35;109370;1253;62603;-79
2023/08/05 02:14:01;;;;;;;7.10;4.90;;;;;;;19.52;100.00;98379.60;109498;1253;58171;-78
2023/08/05 02:16:28;;;;;;;6.90;5.30;;;;;;;19.52;100.00;98376.36;109564;1253;58050;-78
2023/08/05 02:18:54;;;;;;;5.40;4.80;;;;;;;19.50;100.00;98363.06;109545;1253;63906;-78
2023/08/05 02:21:22;;;;;;;8.60;4.70;;;;;;;19.48;100.00;98353.40;109525;1252;60271;-78
2023/08/05 02:23:48;;;;;;;7.30;5.20;;;;;;;19.45;100.00;98356.83;109346;1252;62841;-78
2023/08/05 02:26:15;;;;;;;5.60;5.10;;;;;;;19.43;100.00;98359.88;109553;1253;58120;-78
2023/08/05 02:28:42;;;;;;;6.80;5.00;;;;;;;19.43;100.00;98362.27;109329;1252;58140;-78
2023/08/05 02:31:08;;;;;;;6.40;4.90;;;;;;;19.43;100.00;98360.65;109563;1253;65387;-78
2023/08/05 02:33:35;;;;;;;7.00;5.00;;;;;;;19.43;100.00;98363.33;109630;1253;58701;-78
2023/08/05 02:36:02;;;;;;;7.10;4.80;;;;;;;19.44;100.00;98361.63;109431;1253;65268;-78
2023/08/05 02:38:29;;;;;;;8.10;5.40;;;;;;;19.43;100.00;98365.14;109378;1254;58135;-78
2023/08/05 02:40:58;;;;;;;6.10;5.50;;;;;;;19.40;100.00;98359.30;109639;1253;58198;-78
2023/08/05 02:43:24;;;;;;;6.20;5.30;;;;;;;19.37;100.00;98355.52;109579;1252;66136;-79
2023/08/05 02:45:53;;;;;;;7.90;6.20;;;;;;;19.32;100.00;98342.07;109633;1253;60160;-78
2023/08/05 02:48:19;;;;;;;7.80;5.90;;;;;;;19.28;100.00;98338.20;109600;1252;65220;-79
2023/08/05 02:50:46;;;;;;;8.70;6.30;;;;;;;19.23;100.00;98344.64;109497;1253;58207;-78
2023/08/05 02:53:13;;;;;;;9.00;6.20;;;;;;;19.20;100.00;98343.60;109527;1252;58200;-79
2023/08/05 02:55:39;;;;;;;8.00;6.10;;;;;;;19.16;100.00;98344.55;109530;1252;64044;-78
2023/08/05 02:58:06;;;;;;;7.90;6.20;;;;;;;19.12;100.00;98347.77;109525;1253;58132;-78
2023/08/05 03:00:32;;;;;;;7.10;5.40;;;;;;;19.07;100.00;98347.77;109524;1252;65212;-78
2023/08/05 03:02:59;;;;;;;8.90;5.80;;;;;;;19.03;100.00;98349.96;109524;1253;58264;-78
2023/08/05 03:05:28;;;;;;;8.00;5.70;;;;;;;19.02;100.00;98352.51;109562;1253;58185;-78
2023/08/05 03:07:55;;;;;;;6.90;5.30;;;;;;;19.01;100.00;98358.52;109609;1252;66141;-78
2023/08/05 03:10:21;;;;;;;7.40;5.80;;;;;;;19.00;100.00;98362.90;109425;1253;60488;-78
2023/08/05 03:12:48;;;;;;;7.90;5.90;;;;;;;19.01;100.00;98364.48;109549;1253;63772;-79
2023/08/05 03:15:15;;;;;;;9.90;5.40;;;;;;;18.99;100.00;98364.86;109519;1252;58198;-79
2023/08/05 03:17:41;;;;;;;7.20;6.60;;;;;;;18.97;100.00;98376.95;109596;1252;58418;-79
2023/08/05 03:20:26;;;;;;;9.90;6.70;;;;;;;18.96;100.00;98400.11;109562;1252;64067;-77
2023/08/05 03:22:53;;;;;;;8.50;7.00;;;;;;;18.94;100.00;98403.28;109603;1252;58878;-77
2023/08/05 03:25:21;;;;;;;7.40;6.10;;;;;;;18.89;100.00;98410.23;109541;1253;64122;-79
2023/08/05 03:27:49;;;;;;;8.20;7.40;;;;;;;18.85;100.00;98426.70;109486;1252;58241;-79
2023/08/05 03:30:16;;;;;;;11.00;6.50;;;;;;;18.83;100.00;98435.51;109585;1253;58182;-78
2023/08/05 03:32:46;;;;;;;6.40;5.30;;;;;;;18.80;100.00;98425.33;109556;1253;64921;-78
2023/08/05 03:35:12;;;;;;;10.90;4.80;;;;;;;18.72;100.00;98420.08;109546;1253;58627;-78
2023/08/05 03:37:39;;;;;;;9.10;5.00;;;;;;;18.53;100.00;98434.86;109557;1252;63856;-79
2023/08/05 03:40:06;;;;;;;6.30;4.30;;;;;;;18.29;100.00;98448.58;109557;1252;58162;-79
2023/08/05 03:42:33;;;;;;;6.30;5.60;;;;;;;18.10;100.00;98463.02;109227;1252;58249;-79
2023/08/05 03:44:59;;;;;;;6.60;4.60;;;;;;;18.01;100.00;98466.17;109343;1252;63716;-79
2023/08/05 03:47:26;;;;;;;4.80;4.40;;;;;;;17.95;100.00;98461.60;109572;1253;59110;-79
2023/08/05 03:49:53;;;;;;;6.00;5.40;;;;;;;17.92;100.00;98444.16;109565;1253;63731;-79
2023/08/05 03:52:19;;;;;;;6.40;5.30;;;;;;;17.85;100.00;98445.77;109575;1252;58237;-79
2023/08/05 03:54:46;;;;;;;6.40;5.20;;;;;;;17.82;100.00;98456.66;109509;1253;58213;-79
2023/08/05 03:57:12;;;;;;;6.90;5.60;;;;;;;17.83;100.00;98439.31;109322;1253;65084;-78
2023/08/05 03:59:42;;;;;;;12.10;7.80;;;;;;;17.82;100.00;98412.48;109592;1253;70088;-78
2023/08/05 04:02:10;;;;;;;7.40;6.70;;;;;;;17.79;100.00;98409.16;109569;1252;64103;-78
2023/08/05 04:04:36;;;;;;;9.10;7.30;;;;;;;17.78;100.00;98420.23;109537;1252;58243;-78
2023/08/05 04:07:03;;;;;;;8.30;7.40;;;;;;;17.75;100.00;98422.84;109619;1252;58156;-77
2023/08/05 04:09:31;;;;;;;8.10;6.50;;;;;;;17.71;100.00;98414.30;109318;1254;65296;-78
2023/08/05 04:12:01;;;;;;;6.20;5.00;;;;;;;17.67;100.00;98409.05;109580;1253;59036;-79
2023/08/05 04:14:28;;;;;;;7.60;6.10;;;;;;;17.61;100.00;98408.42;109561;1252;62853;-77
2023/08/05 04:16:55;;;;;;;8.20;5.70;;;;;;;17.55;100.00;98409.48;109566;1253;58151;-77
2023/08/05 04:19:25;;;;;;;7.60;6.00;;;;;;;17.51;100.00;98407.27;109566;1252;58148;-78
2023/08/05 04:21:52;;;;;;;7.90;6.10;;;;;;;17.47;100.00;98410.73;109554;1253;63753;-78
2023/08/05 04:24:22;;;;;;;6.70;5.90;;;;;;;17.45;100.00;98414.95;109590;1252;59919;-78
2023/08/05 04:26:51;;;;;;;7.00;6.10;;;;;;;17.43;100.00;98417.10;109598;1253;64995;-77
2023/08/05 04:29:22;;;;;;;7.40;6.30;;;;;;;17.42;100.00;98409.72;109343;1254;58283;-78
2023/08/05 04:31:49;;;;;;;10.00;6.70;;;;;;;17.40;100.00;98397.68;109613;1252;58135;-78
2023/08/05 04:34:15;;;;;;;11.10;7.50;;;;;;;17.39;100.00;98395.96;109647;1253;72655;-78
2023/08/05 04:36:48;;;;;;;8.20;6.80;;;;;;;17.40;100.00;98398.70;109656;1253;58914;-79
2023/08/05 04:39:15;;;;;;;9.00;7.40;;;;;;;17.43;100.00;98395.77;109556;1252;71349;-78
2023/08/05 04:41:42;;;;;;;10.40;7.50;;;;;;;17.44;100.00;98385.92;109548;1253;58142;-78
2023/08/05 04:44:09;;;;;;;9.50;7.50;;;;;;;17.45;100.00;98369.48;109287;1253;58764;-78
2023/08/05 04:46:36;;;;;;;10.20;8.00;;;;;;;17.44;100.00;98357.53;109566;1252;65098;-78
2023/08/05 04:49:05;;;;;;;8.10;7.10;;;;;;;17.44;100.00;98351.81;109565;1252;60545;-77
2023/08/05 04:51:31;;;;;;;8.80;6.50;;;;;;;17.43;100.00;98348.71;109549;1253;64784;-78
2023/08/05 04:53:58;;;;;;;8.90;6.80;;;;;;;17.39;100.00;98346.70;109545;1253;58420;-79
2023/08/05 04:56:25;;;;;;;8.00;6.60;;;;;;;17.38;100.00;98350.06;109537;1253;58188;-78
2023/08/05 04:58:52;;;;;;;7.10;6.10;;;;;;;17.37;100.00;98345.98;109532;1252;64950;-78
2023/08/05 05:01:18;;;;;;;11.20;7.10;;;;;;;17.35;100.00;98336.38;109561;1252;59983;-79
2023/08/05 05:03:46;;;;;;;7.40;6.60;;;;;;;17.35;100.00;98326.52;109539;1253;62933;-80
2023/08/05 05:06:13;;;;;;;7.30;6.00;;;;;;;17.34;100.00;98314.23;109256;1252;58549;-78
2023/08/05 05:08:39;;;;;;;9.00;7.20;;;;;;;17.32;100.00;98309.05;109553;1253;59267;-78
2023/08/05 05:11:07;;;;;;;8.50;6.90;;;;;;;17.32;100.00;98312.83;109581;1252;65186;-79
2023/08/05 05:13:34;;;;;;;8.00;6.80;;;;;;;17.30;100.00;98326.90;109612;1252;60980;-78
2023/08/05 05:16:02;;;;;;;8.00;6.70;;;;;;;17.28;100.00;98336.96;109540;1253;64053;-79
2023/08/05 05:18:29;;;;;;;7.20;6.50;;;;;;;17.27;100.00;98343.55;109584;1252;58302;-79
2023/08/05 05:20:55;;;;;;;9.00;8.00;;;;;;;17.27;100.00;98342.42;109550;1252;58178;-79
2023/08/05 05:23:22;;;;;;;9.90;8.10;;;;;;;17.29;100.00;98345.67;109583;1253;64022;-78
2023/08/05 05:25:49;;;;;;;11.10;8.90;;;;;;;17.31;100.00;98353.90;109409;1253;60267;-80
2023/08/05 05:28:15;;;;;;;9.40;8.10;;;;;;;17.32;100.00;98347.63;109583;1253;64917;-79
2023/08/05 05:30:42;;;;;;;9.30;8.20;;;;;;;17.34;100.00;98344.96;109508;1252;58130;-79
2023/08/05 05:33:08;;;;;;;9.90;8.90;;;;;;;17.35;100.00;98331.73;109366;1253;58227;-78
2023/08/05 05:35:35;;;;;;;10.70;8.90;;;;;;;17.35;100.00;98308.77;109589;1253;65014;-78
2023/08/05 05:38:02;;;;;;;13.50;10.10;;;;;;;17.33;100.00;98275.71;109636;1253;59811;-78
2023/08/05 05:40:28;;;;;;;12.00;10.90;;;;;;;17.32;100.00;98242.48;109581;1252;63783;-79
2023/08/05 05:42:55;;;;;;;11.10;10.10;;;;;;;17.28;100.00;98237.48;109519;1252;58182;-79
2023/08/05 05:45:22;;;;;;;10.80;9.70;;;;;;;17.26;100.00;98231.66;109589;1253;58191;-78
2023/08/05 05:47:48;;;;;;;11.00;9.20;;;;;;;17.26;100.00;98224.77;109552;1253;63968;-79
2023/08/05 05:50:16;;;;;;;12.10;9.20;;;;;;;17.28;100.00;98220.95;109573;1252;59953;-79
2023/08/05 05:52:43;;;;;;;8.70;7.80;;;;;;;17.31;100.00;98269.17;109408;1252;62856;-78
2023/08/05 05:55:09;;;;;;;11.30;8.00;;;;;;;17.33;100.00;98323.11;109488;1253;58138;-79
2023/08/05 05:57:36;;;;;;;8.30;7.50;;;;;;;17.37;100.00;98345.15;109623;1252;58186;-78
2023/08/05 06:00:04;;;;;;;7.90;7.10;;;;;;;17.41;100.00;98352.14;109540;1252;64275;-78
2023/08/05 06:02:31;;;;;;;8.40;7.40;;;;;;;17.44;100.00;98365.45;109569;1253;59935;-79
2023/08/05 06:04:58;;;;;;;8.50;7.60;;;;;;;17.49;100.00;98376.05;109550;1252;65003;-78
2023/08/05 06:07:24;;;;;;;9.10;7.60;;;;;;;17.56;100.00;98389.51;109194;1254;58365;-78
2023/08/05 06:09:51;;;;;;;10.40;7.40;;;;;;;17.63;100.00;98407.33;109589;1253;58557;-78
2023/08/05 06:12:18;;;;;;;7.60;6.60;;;;;;;17.68;100.00;98425.75;109524;1252;66382;-78
2023/08/05 06:14:44;;;;;;;7.10;6.40;;;;;;;17.72;100.00;98435.99;109577;1253;60189;-77
2023/08/05 06:17:11;;;;;;;8.60;6.90;;;;;;;17.72;100.00;98439.54;109544;1252;63777;-79
2023/08/05 06:19:37;;;;;;;15.40;7.40;;;;;;;17.73;100.00;98444.30;109566;1253;58160;-78
2023/08/05 06:22:05;;;;;;;8.30;7.50;;;;;;;17.73;100.00;98450.02;109615;1253;58130;-79
2023/08/05 06:24:31;;;;;;;7.80;7.00;;;;;;;17.73;100.00;98459.34;109559;1253;63833;-78
2023/08/05 06:26:58;;;;;;;8.50;7.60;;;;;;;17.73;100.00;98455.40;109554;1252;61470;-78
2023/08/05 06:29:24;;;;;;;8.10;7.40;;;;;;;17.75;100.00;98422.64;109511;1253;64025;-79
2023/08/05 06:31:51;;;;;;;9.10;8.20;;;;;;;17.77;100.00;98378.65;109551;1253;58155;-78
2023/08/05 06:34:20;;;;;;;8.70;7.80;;;;;;;17.75;100.00;98306.64;109547;1253;58203;-79
2023/08/05 06:36:46;;;;;;;9.60;8.70;;;;;;;17.70;100.00;98228.07;109315;1254;64061;-79
2023/08/05 06:39:13;;;;;;;11.30;9.40;;;;;;;17.67;100.00;98176.13;109558;1253;61753;-78
2023/08/05 06:41:40;;;;;;;10.50;9.30;;;;;;;17.65;100.00;98135.41;109546;1252;62552;-79
2023/08/05 06:44:06;;;;;;;12.10;11.00;;;;;;;17.62;100.00;98090.17;109570;1252;58192;-79
2023/08/05 06:46:33;;;;;;;15.60;12.50;;;;;;;17.62;100.00;98109.04;109516;1253;58237;-78
2023/08/05 06:48:59;;;;;;;11.10;9.60;;;;;;;17.61;100.00;98128.66;109563;1253;66397;-79
2023/08/05 06:51:27;;;;;;;10.50;9.50;;;;;;;17.58;100.00;98103.48;109572;1253;60259;-78
2023/08/05 06:53:53;;;;;;;10.40;9.40;;;;;;;17.55;100.00;98119.85;109543;1252;64008;-78
2023/08/05 06:56:20;;;;;;;9.00;8.10;;;;;;;17.53;100.00;98098.63;109594;1252;58289;-79
2023/08/05 06:58:47;;;;;;;11.00;8.10;;;;;;;17.52;100.00;98088.48;109325;1252;58525;-79
2023/08/05 07:01:15;;;;;;;7.70;6.90;;;;;;;17.53;100.00;98087.34;109477;1252;65217;-79
2023/08/05 07:03:44;;;;;;;7.80;7.00;;;;;;;17.63;100.00;98082.53;109584;1252;60176;-80
2023/08/05 07:06:10;;;;;;;7.00;6.10;;;;;;;17.78;100.00;98073.80;109535;1253;65173;-80
2023/08/05 07:08:37;;;;;;;7.50;6.70;;;;;;;17.97;100.00;98075.20;109599;1253;58237;-80
2023/08/05 07:11:04;;;;;;;6.90;5.60;;;;;;;18.13;100.00;98087.59;109580;1253;58240;-79
2023/08/05 07:13:30;;;;;;;6.60;5.60;;;;;;;18.22;100.00;98107.02;109558;1252;66482;-80
2023/08/05 07:16:01;;;;;;;6.20;5.60;;;;;;;18.28;100.00;98105.27;109597;1252;60100;-80
2023/08/05 07:18:31;;;;;;;6.30;5.70;;;;;;;18.31;100.00;98102.80;109474;1252;65241;-80
2023/08/05 07:20:58;;;;;;;;;;;;;;;18.28;100.00;98110.44;109542;1252;58159;-80
2023/08/05 07:23:25;;;;;;;5.60;5.00;;;;;;;18.30;100.00;98129.72;109334;1253;58197;-79
2023/08/05 07:25:51;;;;;;;5.90;5.40;;;;;;;18.33;100.00;98141.05;109555;1253;65144;-80
2023/08/05 07:28:18;;;;;;;6.30;5.70;;;;;;;18.39;100.00;98146.48;109522;1252;60229;-80
2023/08/05 07:30:45;;;;;;;8.30;5.10;;;;;;;18.45;100.00;98159.95;109569;1252;64037;-80
2023/08/05 07:33:12;;;;;;;8.80;6.30;;;;;;;18.47;100.00;98165.13;109529;1252;58233;-79
2023/08/05 07:35:39;;;;;;;7.60;5.50;;;;;;;18.50;100.00;98169.05;109542;1252;58069;-79
2023/08/05 07:38:09;;;;;;;7.60;5.60;;;;;;;18.50;100.00;98171.50;109590;1252;66689;-78
2023/08/05 07:40:40;;;;;;;6.10;5.20;;;;;;;18.48;100.00;98180.71;109202;1254;58751;-78
2023/08/05 07:43:09;;;;;;;6.30;5.60;;;;;;;18.43;100.00;98186.80;109547;1252;72901;-79
2023/08/05 07:45:35;;;;;;;6.00;5.20;;;;;;;18.39;100.00;98185.54;109339;1252;58199;-79
2023/08/05 07:48:06;;;;;;;6.30;5.30;;;;;;;18.34;100.00;98174.84;109504;1252;58220;-80
2023/08/05 07:50:34;;;;;;;7.20;5.40;;;;;;;18.28;100.00;98175.57;109606;1252;64172;-79
2023/08/05 07:53:00;;;;;;;9.90;6.20;;;;;;;18.22;100.00;98181.62;109577;1252;59103;-80
2023/08/05 07:55:32;;;;;;;6.10;5.30;;;;;;;18.20;100.00;98189.79;109566;1252;63050;-79
2023/08/05 07:57:58;;;;;;;8.00;6.00;;;;;;;18.18;100.00;98194.00;109524;1252;58241;-79
2023/08/05 08:00:27;;;;;;;6.20;5.40;;;;;;;18.14;100.00;98201.98;109566;1251;60254;-80
2023/08/05 08:02:53;;;;;;;5.90;5.30;;;;;;;18.12;100.00;98201.79;109576;1251;66166;-78
2023/08/05 08:05:21;;;;;;;7.10;5.90;;;;;;;18.12;100.00;98203.27;109677;1251;61251;-80
2023/08/05 08:07:48;;;;;;;7.00;6.40;;;;;;;18.13;100.00;98200.94;109644;1251;63775;-79
2023/08/05 08:10:15;;;;;;;8.50;6.00;;;;;;;18.14;100.00;98200.17;109623;1251;58228;-78
2023/08/05 08:12:43;;;;;;;6.90;6.20;;;;;;;18.15;100.00;98203.98;109669;1251;58226;-80
2023/08/05 08:15:10;;;;;;;8.50;6.80;;;;;;;18.17;100.00;98192.59;109610;1251;64958;-79
2023/08/05 08:17:36;;;;;;;7.10;6.40;;;;;;;18.21;100.00;98179.60;109620;1251;58631;-79
2023/08/05 08:20:03;;;;;;;7.60;6.10;;;;;;;18.23;100.00;98183.41;109645;1251;65259;-79
2023/08/05 08:22:30;;;;;;;6.50;5.90;;;;;;;18.26;100.00;98188.41;109452;1251;58270;-78
2023/08/05 08:24:56;;;;;;;8.40;5.60;;;;;;;18.30;100.00;98192.83;109634;1251;58239;-79
2023/08/05 08:27:23;;;;;;;6.90;6.30;;;;;;;18.31;100.00;98204.86;109677;1251;65299;-79
2023/08/05 08:29:50;;;;;;;6.20;5.60;;;;;;;18.34;100.00;98217.14;109600;1251;60152;-79
2023/08/05 08:32:16;;;;;;;7.50;6.20;;;;;;;18.38;100.00;98223.30;109623;1251;64232;-79
2023/08/05 08:34:43;;;;;;;6.40;5.50;;;;;;;18.41;100.00;98222.08;109591;1251;58158;-79
2023/08/05 08:37:09;;;;;;;7.20;6.30;;;;;;;18.42;100.00;98218.60;109697;1251;58180;-77
2023/08/05 08:39:36;;;;;;;7.50;6.30;;;;;;;18.44;100.00;98217.98;109612;1251;65263;-78
2023/08/05 08:42:02;;;;;;;9.50;6.50;;;;;;;18.48;100.00;98220.48;109674;1251;61129;-78
2023/08/05 08:44:32;;;;;;;7.00;6.40;;;;;;;18.53;100.00;98213.36;109662;1251;64034;-78
2023/08/05 08:46:58;;;;;;;8.30;6.90;;;;;;;18.60;100.00;98209.53;109618;1251;58120;-78
2023/08/05 08:49:27;;;;;;;7.40;6.50;;;;;;;18.69;100.00;98202.81;109702;1251;58211;-78
2023/08/05 08:51:54;;;;;;;9.50;6.40;;;;;;;18.76;100.00;98207.23;109645;1251;74034;-78
2023/08/05 08:54:22;;;;;;;8.00;6.30;;;;;;;18.85;100.00;98207.52;109637;1251;60207;-79
2023/08/05 08:56:48;;;;;;;8.50;6.40;;;;;;;18.94;100.00;98208.70;109628;1251;65217;-78
2023/08/05 08:59:15;;;;;;;10.40;7.40;;;;;;;19.02;100.00;98209.58;109625;1251;58143;-79
2023/08/05 09:01:43;;;;;;;7.30;6.50;;;;;;;19.11;100.00;98204.87;109531;1251;58417;-79
2023/08/05 09:04:11;;;;;;;7.70;6.90;;;;;;;19.15;100.00;98206.77;109645;1251;63832;-78
2023/08/05 09:06:41;;;;;;;8.30;7.50;;;;;;;19.21;100.00;98206.77;109697;1251;59682;-79
2023/08/05 09:09:08;;;;;;;;;;;;;;;19.24;100.00;98192.00;109614;1251;62542;-79
2023/08/05 09:11:34;;;;;;;9.30;7.50;;;;;;;19.28;100.00;98187.02;109662;1251;58077;-79
2023/08/05 09:14:03;;;;;;;8.50;7.60;;;;;;;19.33;100.00;98187.06;109601;1251;58049;-80
2023/08/05 09:16:30;;;;;;;8.90;7.70;;;;;;;19.45;100.00;98183.91;109613;1251;66428;-80
2023/08/05 09:18:57;;;;;;;9.00;8.10;;;;;;;19.62;100.00;98185.69;109683;1250;58918;-79
2023/08/05 09:21:26;;;;;;;9.50;8.00;;;;;;;19.75;100.00;98180.88;109513;1251;64118;-79
2023/08/05 09:23:57;;;;;;;12.00;10.50;;;;;;;19.83;100.00;98181.55;109606;1251;58103;-79
2023/08/05 09:26:31;;;;;;;9.80;8.90;;;;;;;19.99;100.00;98179.48;109613;1251;58242;-80
2023/08/05 09:28:59;;;;;;;10.30;9.40;;;;;;;20.14;100.00;98179.86;109610;1250;66327;-78
2023/08/05 09:31:26;;;;;;;11.60;10.50;;;;;;;20.25;100.00;98180.13;109630;1251;58698;-79
2023/08/05 09:33:52;;;;;;;14.40;13.10;;;;;;;20.30;100.00;98181.70;109623;1251;64031;-80
2023/08/05 09:36:22;;;;;;;12.40;11.20;;;;;;;20.42;100.00;98178.80;109621;1251;58068;-79
2023/08/05 09:39:06;;;;;;;12.30;11.20;;;;;;;20.55;100.00;98176.31;109245;1251;58264;-80
2023/08/05 09:41:35;;;;;;;9.70;8.90;;;;;;;20.68;100.00;98178.11;109653;1251;63711;-80
2023/08/05 09:44:01;;;;;;;10.80;9.80;;;;;;;20.70;100.00;98179.85;109618;1251;59874;-80
2023/08/05 09:46:40;;;;;;;10.60;9.70;;;;;;;20.72;100.00;98171.97;109635;1251;62881;-79
2023/08/05 09:49:08;;;;;;;8.60;7.90;;;;;;;20.79;100.00;98167.48;109553;1251;58176;-79
2023/08/05 09:51:36;;;;;;;7.50;6.80;;;;;;;20.79;100.00;98170.16;109691;1251;58061;-78
2023/08/05 09:54:05;;;;;;;8.50;7.60;;;;;;;20.73;100.00;98173.69;109548;1251;65049;-80
2023/08/05 09:56:32;;;;;;;8.50;7.70;;;;;;;20.65;100.00;98173.00;109652;1250;59157;-80
2023/08/05 09:59:00;;;;;;;7.20;6.60;;;;;;;20.66;100.00;98168.77;109670;1251;63731;-79
2023/08/05 10:01:26;;;;;;;7.40;6.70;;;;;;;20.77;100.00;98163.29;109616;1251;58198;-78
2023/08/05 10:03:58;;;;;;;7.00;6.40;;;;;;;20.90;100.00;98165.21;109634;1251;58131;-80
2023/08/05 10:06:24;;;;;;;9.70;8.80;;;;;;;21.03;100.00;98164.95;109631;1251;65233;-79
2023/08/05 10:08:52;;;;;;;10.60;9.40;;;;;;;21.13;100.00;98165.89;109681;1250;60171;-78
2023/08/05 10:11:19;;;;;;;11.70;10.50;;;;;;;21.12;100.00;98168.17;109598;1251;64040;-79
2023/08/05 10:13:52;;;;;;;10.60;9.60;;;;;;;21.07;100.00;98168.08;109596;1251;58210;-79
2023/08/05 10:16:20;;;;;;;11.00;10.00;;;;;;;21.02;100.00;98165.56;109637;1251;58370;-80
2023/08/05 10:18:48;;;;;;;12.70;11.50;;;;;;;20.99;100.00;98160.73;109607;1251;64044;-80
2023/08/05 10:21:42;;;;;;;11.60;10.70;;;;;;;20.93;100.00;98163.15;109476;1251;60289;-80
2023/08/05 10:24:09;;;;;;;7.90;7.10;;;;;;;20.93;100.00;98156.79;109618;1251;62435;-80
2023/08/05 10:26:45;;;;;;;7.50;6.70;;;;;;;21.02;100.00;98149.64;109633;1251;58140;-80
2023/08/05 10:29:29;;;;;;;7.30;6.70;;;;;;;21.11;100.00;98146.38;109646;1251;58469;-80
2023/08/05 10:32:14;;;;;;;8.50;7.50;;;;;;;21.19;100.00;98145.58;109585;1251;66114;-80
2023/08/05 10:34:40;;;;;;;8.10;7.30;;;;;;;21.24;100.00;98143.67;109661;1251;58775;-80
2023/08/05 10:37:07;;;;;;;8.00;7.20;;;;;;;21.33;100.00;98147.13;109668;1251;64021;-80
2023/08/05 10:39:39;;;;;;;7.50;6.90;;;;;;;21.40;100.00;98150.23;109418;1251;58220;-79
2023/08/05 10:42:30;;;;;;;7.70;6.90;;;;;;;21.41;100.00;98146.69;109647;1251;58157;-79
2023/08/05 10:45:00;;;;;;;8.10;7.50;;;;;;;21.45;100.00;98143.40;109627;1253;63744;-79
2023/08/05 10:47:27;;;;;;;7.70;6.90;;;;;;;21.51;100.00;98133.40;109583;1251;60226;-79
2023/08/05 10:49:58;;;;;;;7.70;6.90;;;;;;;21.48;100.00;98125.86;109627;1251;62839;-79
2023/08/05 10:52:26;;;;;;;7.40;6.70;;;;;;;21.56;100.00;98121.88;109626;1251;58340;-79
2023/08/05 10:54:55;;;;;;;7.40;6.80;;;;;;;21.63;100.00;98118.79;109673;1251;58244;-80
2023/08/05 10:57:28;;;;;;;6.90;6.30;;;;;;;21.80;100.00;98116.98;109636;1251;65311;-82
2023/08/05 11:00:03;;;;;;;8.10;7.30;;;;;;;22.02;100.00;98117.06;109656;1250;60131;-82
2023/08/05 11:02:31;;;;;;;7.40;6.40;;;;;;;22.23;100.00;98115.86;109606;1251;71369;-82
2023/08/05 11:05:08;;;;;;;7.20;6.60;;;;;;;22.36;100.00;98115.23;109512;1251;58140;-81
2023/08/05 11:07:39;;;;;;;6.30;5.80;;;;;;;22.49;100.00;98115.55;109647;1251;58224;-82
2023/08/05 11:10:07;;;;;;;6.60;5.80;;;;;;;22.51;100.00;98117.25;109642;1251;64373;-81
2023/08/05 11:12:33;;;;;;;7.50;6.80;;;;;;;22.44;100.00;98112.53;109699;1251;60049;-82
2023/08/05 11:15:00;;;;;;;6.90;6.30;;;;;;;22.33;100.00;98114.94;109638;1251;64141;-82
2023/08/05 11:17:27;;;;;;;7.80;7.20;;;;;;;22.22;100.00;98112.21;109610;1251;58157;-82
2023/08/05 11:19:56;;;;;;;8.50;7.70;;;;;;;22.05;100.00;98114.66;109629;1251;58499;-83